Data for 02/18/2005

Time Sea-Level Adjusted Pressure Absolute Pressure Temperature Relative Humidity Dew Point   
(mb) (inHg) (mb) (inHg) (C) (F) (%) (C) (F)
00:05 1019 30.09 849 25.07 -3.6 25.4 48 -13.1 8.5
00:10 1019 30.09 849 25.07 -4.1 24.7 51 -12.8 8.9
00:15 1019 30.09 849 25.07 -4 24.8 50 -13 8.5
00:20 1019 30.09 849 25.07 -3.9 24.9 49 -13.1 8.4
00:25 1019 30.09 848 25.04 -3.9 24.9 47 -13.6 7.6
00:30 1019 30.09 849 25.07 -3.7 25.4 47 -13.4 7.9
00:35 1019 30.09 849 25.07 -3.7 25.3 48 -13.1 8.3
00:40 1019 30.09 849 25.07 -3.9 25 49 -13.2 8.3
00:45 1019 30.09 849 25.07 -3.9 24.9 50 -13 8.6
00:50 1019 30.09 849 25.07 -4 24.8 50 -13 8.6
00:55 1019 30.09 849 25.07 -4.1 24.7 50 -12.9 8.8
01:00 1019 30.09 849 25.07 -4.2 24.4 51 -12.8 8.9
01:05 1019 30.09 849 25.07 -4.5 23.8 55 -12.2 10
01:10 1019 30.09 849 25.07 -4.4 24.1 53 -12.6 9.2
01:15 1019 30.09 849 25.07 -4.5 23.9 53 -12.7 9.2
01:20 1019 30.09 849 25.07 -4.8 23.3 53 -13 8.6
01:25 1019 30.09 848 25.04 -4.3 24.3 51 -13.1 8.5
01:30 1019 30.09 848 25.04 -4.3 24.3 52 -12.8 9
01:35 1019 30.09 848 25.04 -4.8 23.3 55 -12.5 9.5
01:40 1019 30.09 848 25.04 -4.8 23.3 56 -12.3 9.9
01:45 1019 30.09 848 25.04 -4.9 23.2 58 -11.9 10.5
01:50 1019 30.09 848 25.04 -5 23 57 -12.3 9.9
01:55 1019 30.09 849 25.07 -4.9 23.2 54 -12.8 8.9
02:00 1019 30.09 849 25.07 -4.9 23.1 54 -12.8 8.9
02:05 1019 30.09 849 25.07 -5.3 22.5 56 -12.8 8.9
02:10 1020 30.12 849 25.07 -5.3 22.5 55 -13 8.7
02:15 1020 30.12 849 25.07 -5.3 22.4 55 -12.9 8.7
02:20 1020 30.12 849 25.07 -5.4 22.3 56 -12.9 8.7
02:25 1020 30.12 849 25.07 -5.5 22 56 -13.1 8.5
02:30 1020 30.12 849 25.07 -5.7 21.7 57 -13 8.5
02:35 1020 30.12 849 25.07 -5.8 21.6 57 -13 8.6
02:40 1020 30.12 849 25.07 -5.8 21.5 56 -13.2 8.2
02:45 1019 30.09 849 25.07 -5.7 21.8 55 -13.4 7.9
02:50 1019 30.09 849 25.07 -5.8 21.6 56 -13.1 8.4
02:55 1019 30.09 849 25.07 -6 21.1 58 -13.1 8.5
03:00 1019 30.09 849 25.07 -6 21.2 56 -13.3 8
03:05 1019 30.09 849 25.07 -5.9 21.4 56 -13.3 8
03:10 1019 30.09 849 25.07 -5.8 21.5 57 -13.1 8.4
03:15 1019 30.09 849 25.07 -5.8 21.5 56 -13.2 8.2
03:20 1019 30.09 848 25.04 -5.9 21.4 57 -13.1 8.3
03:25 1019 30.09 848 25.04 -5.9 21.4 56 -13.3 8.1
03:30 1019 30.09 848 25.04 -5.9 21.5 57 -13.2 8.3
03:35 1019 30.09 848 25.04 -6.2 20.9 58 -13.1 8.5
03:40 1019 30.09 848 25.04 -6.2 20.8 58 -13.2 8.2
03:45 1019 30.09 848 25.04 -6 21.1 56 -13.4 7.9
03:50 1019 30.09 848 25.04 -5.9 21.3 57 -13.2 8.2
03:55 1019 30.09 848 25.04 -6 21.2 56 -13.3 8
04:00 1019 30.09 848 25.04 -6.2 20.8 57 -13.4 7.9
04:05 1019 30.09 848 25.04 -6.3 20.7 57 -13.5 7.8
04:10 1019 30.09 848 25.04 -6.4 20.4 59 -13.2 8.2
04:15 1019 30.09 848 25.04 -6.5 20.3 59 -13.2 8.2
04:20 1019 30.09 848 25.04 -6.6 20.1 59 -13.3 8
04:25 1019 30.09 848 25.04 -6.6 20 59 -13.3 8
04:30 1019 30.09 848 25.04 -6.8 19.8 60 -13.4 7.9
04:35 1019 30.09 848 25.04 -7 19.4 61 -13.4 7.9
04:40 1019 30.09 848 25.04 -7 19.4 60 -13.5 7.7
04:45 1019 30.09 848 25.04 -7.2 19.1 61 -13.4 7.8
04:50 1019 30.09 848 25.04 -7.3 19 61 -13.5 7.6
04:55 1019 30.09 848 25.04 -7.3 18.9 61 -13.6 7.5
05:00 1019 30.09 848 25.04 -7.3 18.9 61 -13.6 7.5
05:05 1019 30.09 848 25.04 -7.2 19.1 61 -13.5 7.7
05:10 1019 30.09 848 25.04 -7.2 19.1 61 -13.5 7.6
05:15 1019 30.09 848 25.04 -7.2 19.1 61 -13.5 7.6
05:20 1019 30.09 848 25.04 -7.3 18.9 61 -13.6 7.5
05:25 1019 30.09 848 25.04 -7.2 19 61 -13.5 7.7
05:30 1019 30.09 848 25.04 -7.1 19.3 61 -13.4 7.9
05:35 1019 30.09 848 25.04 -7.3 19 61 -13.6 7.5
05:40 1019 30.09 848 25.04 -7.2 19 62 -13.4 7.9
05:45 1019 30.09 848 25.04 -7.2 19.1 60 -13.7 7.4
05:50 1019 30.09 848 25.04 -7 19.3 60 -13.5 7.7
05:55 1018 30.06 848 25.04 -7.2 19.1 61 -13.5 7.6
06:00 1018 30.06 848 25.04 -7.1 19.3 61 -13.4 7.8
06:05 1018 30.06 848 25.04 -7.1 19.3 62 -13.2 8.2
06:10 1018 30.06 848 25.04 -7.5 18.5 62 -13.5 7.7
06:15 1018 30.06 847 25.01 -7.1 19.2 60 -13.7 7.3
06:20 1018 30.06 847 25.01 -7 19.4 61 -13.4 7.9
06:25 1018 30.06 847 25.01 -7.3 18.8 61 -13.5 7.6
06:30 1018 30.06 847 25.01 -7.5 18.5 63 -13.5 7.8
06:35 1018 30.06 847 25.01 -7.6 18.3 63 -13.5 7.7
06:40 1018 30.06 847 25.01 -7.5 18.5 62 -13.5 7.7
06:45 1018 30.06 847 25.01 -7.7 18.2 64 -13.4 7.9
06:50 1018 30.06 847 25.01 -7.9 17.8 64 -13.5 7.7
06:55 1018 30.06 847 25.01 -7.9 17.7 64 -13.5 7.7
07:00 1018 30.06 847 25.01 -8 17.6 64 -13.6 7.5
07:05 1018 30.06 847 25.01 -7.8 18 63 -13.7 7.3
07:10 1018 30.06 847 25.01 -7.8 18 62 -13.8 7.2
07:15 1018 30.06 847 25.01 -7.7 18.1 61 -13.9 6.9
07:20 1018 30.06 847 25.01 -7.5 18.5 61 -13.8 7.1
07:25 1018 30.06 847 25.01 -7.8 17.9 62 -13.8 7.1
07:30 1018 30.06 847 25.01 -8 17.6 63 -13.8 7.1
07:35 1018 30.06 847 25.01 -8.1 17.4 64 -13.9 7
07:40 1018 30.06 847 25.01 -8.2 17.2 64 -13.9 7
07:45 1017 30.03 847 25.01 -8 17.6 63 -14 6.9
07:50 1018 30.06 847 25.01 -7.6 18.3 62 -13.7 7.3
07:55 1017 30.03 847 25.01 -7.6 18.2 62 -13.6 7.5
08:00 1017 30.03 847 25.01 -7.4 18.7 61 -13.7 7.4
08:05 1017 30.03 847 25.01 -7.4 18.7 61 -13.7 7.3
08:10 1017 30.03 847 25.01 -7 19.4 59 -13.8 7.1
08:15 1017 30.03 847 25.01 -6.6 20.1 56 -13.9 7
08:20 1017 30.03 847 25.01 -6.3 20.7 56 -13.6 7.5
08:25 1017 30.03 847 25.01 -6.3 20.6 56 -13.7 7.4
08:30 1017 30.03 847 25.01 -6.1 21 55 -13.6 7.4
08:35 1017 30.03 847 25.01 -6 21.2 56 -13.5 7.7
08:40 1017 30.03 847 25.01 -5.9 21.4 55 -13.5 7.7
08:45 1017 30.03 847 25.01 -5.6 21.9 54 -13.5 7.7
08:50 1017 30.03 847 25.01 -5.4 22.2 54 -13.4 8
08:55 1017 30.03 847 25.01 -4.8 23.4 52 -13.3 8.1
09:00 1017 30.03 846 24.98 -3.9 25 48 -13.5 7.8
09:05 1017 30.03 846 24.98 -3.6 25.5 47 -13.2 8.2
09:10 1017 30.03 846 24.98 -3.2 26.3 45 -13.4 7.8
09:15 1017 30.03 846 24.98 -2.8 26.9 45 -13.1 8.4
09:20 1017 30.03 846 24.98 -2.7 27.2 45 -13 8.6
09:25 1017 30.03 846 24.98 -3 26.6 46 -13.2 8.2
09:30 1017 30.03 846 24.98 -3.2 26.3 48 -12.8 9
09:35 1017 30.03 846 24.98 -2.8 26.9 48 -12.2 10
09:40 1017 30.03 846 24.98 -2.6 27.3 44 -13.2 8.2
09:45 1017 30.03 846 24.98 -2.6 27.3 45 -13 8.5
09:50 1017 30.03 846 24.98 -2.2 28.1 42 -13.4 7.9
09:55 1017 30.03 846 24.98 -1.5 29.4 41 -13.1 8.3
10:00 1017 30.03 846 24.98 -1.4 29.5 40 -13.5 7.7
10:05 1017 30.03 846 24.98 -1.8 28.7 41 -13.3 8
10:10 1017 30.03 846 24.98 -1.6 29.2 40 -13.5 7.8
10:15 1017 30.03 846 24.98 -1.6 29.1 39 -13.7 7.3
10:20 1017 30.03 846 24.98 -1.2 29.8 37 -14.1 6.6
10:25 1017 30.03 846 24.98 -1 30.2 39 -13.2 8.3
10:30 1017 30.03 846 24.98 -0.5 31.1 36 -14 6.9
10:35 1017 30.03 846 24.98 -0.2 31.7 35 -14 6.8
10:40 1017 30.03 846 24.98 -0 31.9 36 -13.5 7.6
10:45 1016 30 846 24.98 0.1 32.2 36 -13.2 8.3
10:50 1016 30 846 24.98 0.6 33 36 -12.8 8.9
10:55 1016 30 846 24.98 0.6 33 38 -12.2 10
11:00 1016 30 845 24.95 0.1 32.1 37 -12.9 8.7
11:05 1016 30 845 24.95 0.6 33.1 35 -13.2 8.2
11:10 1016 30 845 24.95 1.2 34.2 35 -12.5 9.4
11:15 1016 30 845 24.95 1.4 34.5 34 -12.9 8.9
11:20 1016 30 845 24.95 1.1 34 35 -12.7 9.1
11:25 1016 30 845 24.95 1.2 34.1 36 -12.2 10
11:30 1016 30 845 24.95 1.1 34 37 -11.9 10.5
11:35 1016 30 845 24.95 1 33.8 36 -12.6 9.3
11:40 1016 30 845 24.95 0.6 33.1 39 -11.9 10.5
11:45 1015 29.97 845 24.95 0.9 33.7 37 -12.2 10
11:50 1015 29.97 845 24.95 1 33.9 37 -12.1 10.3
11:55 1015 29.97 844 24.92 0.3 32.5 40 -11.9 10.6
12:00 1015 29.97 844 24.92 0.4 32.7 40 -11.7 11
12:05 1015 29.97 844 24.92 0.1 32.2 41 -11.5 11.3
12:10 1015 29.97 844 24.92 0.7 33.2 40 -11.3 11.6
12:15 1015 29.97 844 24.92 0.8 33.4 40 -11.4 11.4
12:20 1015 29.97 844 24.92 1.1 34 40 -11.2 11.8
12:25 1015 29.97 844 24.92 2 35.5 37 -11.4 11.6
12:30 1015 29.97 844 24.92 1.9 35.5 36 -11.7 11
12:35 1015 29.97 844 24.92 1.7 35.1 37 -11.5 11.3
12:40 1014 29.94 844 24.92 2.1 35.8 35 -11.8 10.8
12:45 1014 29.94 844 24.92 2.5 36.6 35 -11.5 11.3
12:50 1014 29.94 844 24.92 2.7 36.8 34 -11.5 11.2
12:55 1014 29.94 843 24.89 2.9 37.1 35 -11.2 11.8
13:00 1014 29.94 843 24.89 3 37.5 35 -10.8 12.5
13:05 1014 29.94 843 24.89 2.9 37.1 35 -11.1 12
13:10 1014 29.94 843 24.89 2.6 36.8 35 -11.5 11.3
13:15 1014 29.94 843 24.89 3.2 37.8 35 -11 12.2
13:20 1014 29.94 843 24.89 3.8 38.8 34 -10.7 12.8
13:25 1014 29.94 843 24.89 3.9 39.1 31 -11.6 11.2
13:30 1013 29.91 843 24.89 3.8 38.9 33 -11 12.2
13:35 1013 29.91 842 24.86 4.1 39.3 34 -10.6 13
13:40 1013 29.91 842 24.86 3.3 37.9 35 -10.6 12.9
13:45 1013 29.91 842 24.86 2.6 36.6 38 -10.2 13.6
13:50 1013 29.91 842 24.86 2.1 35.8 39 -10.6 13
13:55 1013 29.91 842 24.86 2.3 36.2 38 -10.6 12.9
14:00 1013 29.91 842 24.86 2.6 36.6 39 -9.9 14.2
14:05 1013 29.91 842 24.86 3.4 38 36 -10.3 13.4
14:10 1013 29.91 842 24.86 4.1 39.4 34 -10.5 13.1
14:15 1013 29.91 842 24.86 4.4 40 33 -10.6 13
14:20 1013 29.91 842 24.86 4.2 39.5 34 -10.5 13.1
14:25 1013 29.91 842 24.86 4.1 39.4 34 -10.4 13.2
14:30 1013 29.91 842 24.86 4 39.1 34 -10.5 13.1
14:35 1013 29.91 842 24.86 3.7 38.6 35 -10.6 12.9
14:40 1012 29.88 842 24.86 4 39.2 34 -10.6 12.9
14:45 1012 29.88 842 24.86 3.9 38.9 35 -10.3 13.5
14:50 1012 29.88 841 24.83 3.5 38.3 35 -10.4 13.3
14:55 1012 29.88 841 24.83 3.4 38.1 35 -10.6 12.9
15:00 1012 29.88 841 24.83 3.1 37.6 37 -10.2 13.6
15:05 1012 29.88 841 24.83 3.5 38.2 35 -10.7 12.7
15:10 1012 29.88 841 24.83 3.6 38.6 35 -10.4 13.3
15:15 1012 29.88 841 24.83 3.7 38.7 37 -9.8 14.3
15:20 1012 29.88 841 24.83 3.3 38 37 -9.9 14.1
15:25 1012 29.88 841 24.83 3.2 37.8 37 -10 14
15:30 1012 29.88 841 24.83 3.2 37.7 37 -10.3 13.5
15:35 1012 29.88 841 24.83 3.1 37.5 38 -10 14.1
15:40 1012 29.88 841 24.83 2.8 37.1 37 -10.4 13.2
15:45 1012 29.88 841 24.83 2.9 37.3 37 -10.3 13.5
15:50 1012 29.88 841 24.83 3.1 37.5 36 -10.7 12.7
15:55 1012 29.88 841 24.83 3.3 38 38 -9.8 14.3
16:00 1012 29.88 841 24.83 3.7 38.6 35 -10.4 13.3
16:05 1011 29.85 841 24.83 4.2 39.5 34 -10.3 13.4
16:10 1011 29.85 841 24.83 4.7 40.5 34 -9.9 14.2
16:15 1011 29.85 841 24.83 4.8 40.6 33 -10.1 13.7
16:20 1011 29.85 840 24.81 4.7 40.5 34 -10 13.9
16:25 1011 29.85 840 24.81 4.8 40.6 34 -10 14.1
16:30 1011 29.85 840 24.81 4.3 39.8 34 -10.1 13.8
16:35 1011 29.85 840 24.81 4.1 39.5 35 -10.1 13.9
16:40 1011 29.85 840 24.81 3.7 38.7 37 -9.8 14.4
16:45 1011 29.85 840 24.81 3.4 38.1 38 -9.7 14.6
16:50 1011 29.85 840 24.81 3.1 37.6 39 -9.7 14.6
16:55 1011 29.85 840 24.81 3 37.4 39 -9.6 14.7
17:00 1011 29.85 840 24.81 3 37.3 40 -9.3 15.2
17:05 1011 29.85 840 24.81 2.8 37 41 -9.4 15.1
17:10 1011 29.85 840 24.81 2.6 36.8 41 -9.5 15
17:15 1011 29.85 840 24.81 2.5 36.5 40 -9.6 14.7
17:20 1011 29.85 840 24.81 2.6 36.6 41 -9.4 15
17:25 1011 29.85 840 24.81 2.6 36.6 42 -9 15.9
17:30 1011 29.85 840 24.81 2.6 36.6 40 -9.6 14.7
17:35 1011 29.85 840 24.81 2 35.6 41 -9.8 14.4
17:40 1011 29.85 840 24.81 1.7 35.1 42 -9.9 14.2
17:45 1011 29.85 840 24.81 1.6 34.9 42 -10 13.9
17:50 1010 29.83 840 24.81 1.4 34.5 43 -9.9 14.1
17:55 1010 29.83 840 24.81 1.1 34 41 -10.6 13
18:00 1010 29.83 839 24.78 1.2 34.1 41 -10.6 12.9
18:05 1010 29.83 839 24.78 1.1 34 41 -10.7 12.7
18:10 1010 29.83 839 24.78 1 33.8 42 -10.5 13
18:15 1010 29.83 839 24.78 0.9 33.6 42 -10.8 12.6
18:20 1010 29.83 839 24.78 0.9 33.6 43 -10.4 13.2
18:25 1010 29.83 839 24.78 0.7 33.3 42 -10.8 12.5
18:30 1010 29.83 839 24.78 0.7 33.2 43 -10.7 12.8
18:35 1010 29.83 839 24.78 0.5 32.8 46 -9.8 14.3
18:40 1010 29.83 839 24.78 0.2 32.4 47 -9.9 14.2
18:45 1010 29.83 839 24.78 -0.1 31.8 49 -9.7 14.6
18:50 1010 29.83 839 24.78 -0.2 31.7 46 -10.5 13.1
18:55 1010 29.83 839 24.78 0 32 46 -10.4 13.3
19:00 1010 29.83 839 24.78 -0.2 31.6 47 -10.1 13.8
19:05 1010 29.83 839 24.78 -0.6 30.9 50 -9.9 14.1
19:10 1010 29.83 839 24.78 -0.9 30.3 49 -10.3 13.5
19:15 1010 29.83 839 24.78 -0.9 30.5 48 -10.6 12.9
19:20 1009 29.8 839 24.78 -0.8 30.6 48 -10.5 13.1
19:25 1009 29.8 839 24.78 -0.9 30.4 48 -10.6 12.8
19:30 1009 29.8 839 24.78 -0.9 30.4 48 -10.7 12.8
19:35 1009 29.8 839 24.78 -0.7 30.7 48 -10.4 13.2
19:40 1009 29.8 839 24.78 -0.7 30.7 51 -9.6 14.8
19:45 1009 29.8 839 24.78 -0.7 30.8 52 -9.3 15.2
19:50 1009 29.8 838 24.75 -0.8 30.6 52 -9.5 14.9
19:55 1009 29.8 838 24.75 -0.9 30.4 52 -9.6 14.6
20:00 1009 29.8 838 24.75 -0.9 30.4 48 -10.6 12.9
20:05 1009 29.8 838 24.75 -0.7 30.8 48 -10.3 13.5
20:10 1009 29.8 838 24.75 -0.7 30.7 47 -10.7 12.7
20:15 1009 29.8 838 24.75 -0.6 30.9 46 -10.9 12.3
20:20 1009 29.8 838 24.75 -0.5 31.1 45 -10.9 12.3
20:25 1009 29.8 838 24.75 -0.5 31.2 45 -11 12.2
20:30 1009 29.8 838 24.75 -0.5 31 45 -11.1 12
20:35 1009 29.8 838 24.75 -0.7 30.7 45 -11.2 11.8
20:40 1009 29.8 838 24.75 -0.8 30.6 46 -11.1 12.1
20:45 1009 29.8 838 24.75 -0.7 30.7 46 -10.8 12.5
20:50 1009 29.8 838 24.75 -1 30.2 48 -10.7 12.7
20:55 1009 29.8 838 24.75 -0.7 30.7 46 -10.9 12.3
21:00 1009 29.8 838 24.75 -0.6 31 45 -11 12.2
21:05 1009 29.8 838 24.75 -0.6 30.9 46 -10.9 12.4
21:10 1009 29.8 838 24.75 -0.7 30.8 46 -10.8 12.5
21:15 1009 29.8 838 24.75 -0.7 30.7 47 -10.7 12.8
21:20 1009 29.8 838 24.75 -0.8 30.6 48 -10.5 13.1
21:25 1009 29.8 838 24.75 -0.9 30.4 48 -10.4 13.2
21:30 1009 29.8 838 24.75 -1 30.2 49 -10.4 13.3
21:35 1009 29.8 838 24.75 -1.1 30 49 -10.6 13
21:40 1009 29.8 838 24.75 -0.8 30.5 48 -10.5 13.1
21:45 1009 29.8 838 24.75 -0.9 30.3 49 -10.3 13.5
21:50 1009 29.8 838 24.75 -1 30.1 50 -10.2 13.6
21:55 1009 29.8 838 24.75 -1.1 29.9 51 -10.1 13.9
22:00 1009 29.8 838 24.75 -1.4 29.5 53 -9.9 14.2
22:05 1009 29.8 838 24.75 -1.6 29.1 54 -9.8 14.4
22:10 1009 29.8 838 24.75 -1.8 28.7 54 -10 14
22:15 1009 29.8 838 24.75 -1.9 28.5 54 -10.1 13.8
22:20 1009 29.8 838 24.75 -2.1 28.3 56 -9.8 14.4
22:25 1009 29.8 838 24.75 -2.1 28.2 55 -10.1 13.9
22:30 1009 29.8 838 24.75 -2 28.4 55 -9.8 14.3
22:35 1009 29.8 838 24.75 -1.9 28.5 54 -10 14
22:40 1009 29.8 838 24.75 -1.8 28.8 54 -9.9 14.1
22:45 1008 29.77 838 24.75 -1.9 28.5 54 -10 14
22:50 1008 29.77 838 24.75 -2.3 27.9 56 -9.9 14.1
22:55 1008 29.77 838 24.75 -2.2 28 55 -10 14
23:00 1008 29.77 838 24.75 -2.3 27.8 55 -10.1 13.8
23:05 1008 29.77 838 24.75 -2.2 28 54 -10.2 13.6
23:10 1008 29.77 838 24.75 -2.4 27.8 54 -10.4 13.3
23:15 1008 29.77 838 24.75 -1.9 28.6 53 -10.4 13.3
23:20 1008 29.77 838 24.75 -1.9 28.6 53 -10.2 13.7
23:25 1008 29.77 838 24.75 -2 28.3 54 -10.1 13.8
23:30 1008 29.77 838 24.75 -2 28.4 54 -10.2 13.7
23:35 1008 29.77 837 24.72 -2.3 27.9 54 -10.4 13.2
23:40 1008 29.77 837 24.72 -1.5 29.3 51 -10.5 13.2
23:45 1008 29.77 837 24.72 -1.5 29.4 52 -10.2 13.7
23:50 1008 29.77 837 24.72 -1.4 29.4 52 -10 14
23:55 1008 29.77 837 24.72 -1.4 29.4 52 -10 14.1
24:00 1008 29.77 837 24.72 -1.7 28.9 53 -10 14